Time;durP1;ratioP1;P1;durP2;ratioP2;P2;SDS_P1;SDS_P2;PMS_P1;PMS_P2;Temp;Humidity;BMP_temperature;BMP_pressure;BME280_temperature;BME280_humidity;BME280_pressure;Samples;Min_cycle;Max_cycle;Signal;HPM_P1;HPM_P2
2022/03/07 00:00:43;;;;;;;11.17;9.83;;;;;;;3.14;43.70;101003.34;5013986;28;20943;-78
2022/03/07 00:03:08;;;;;;;10.00;8.48;;;;;;;3.17;43.75;101009.34;5029635;28;20771;-78
2022/03/07 00:05:34;;;;;;;9.30;8.37;;;;;;;3.16;43.60;100999.66;5029787;28;20387;-78
2022/03/07 00:07:59;;;;;;;8.40;7.50;;;;;;;3.12;43.71;101001.88;5025662;28;20408;-77
2022/03/07 00:10:24;;;;;;;8.65;7.85;;;;;;;3.08;44.01;101003.25;5027264;28;20456;-77
2022/03/07 00:12:50;;;;;;;8.73;7.93;;;;;;;3.07;43.67;101001.56;5010896;28;20428;-77
2022/03/07 00:15:16;;;;;;;9.30;8.10;;;;;;;3.06;43.98;101013.31;5018198;28;20840;-78
2022/03/07 00:17:42;;;;;;;9.10;7.72;;;;;;;3.03;44.27;100998.44;5011291;28;20416;-78
2022/03/07 00:20:07;;;;;;;8.67;7.83;;;;;;;3.05;43.77;101003.59;5059440;28;20478;-77
2022/03/07 00:22:33;;;;;;;8.82;7.93;;;;;;;2.99;43.93;101012.38;5024584;28;20400;-78
2022/03/07 00:24:58;;;;;;;9.83;8.80;;;;;;;2.96;43.79;101010.91;5011497;28;20399;-77
2022/03/07 00:27:23;;;;;;;9.57;8.57;;;;;;;3.01;43.88;101007.66;5039167;28;20395;-78
2022/03/07 00:29:49;;;;;;;10.80;8.00;;;;;;;3.08;43.84;101011.28;5025480;28;20422;-77
2022/03/07 00:32:14;;;;;;;9.60;8.10;;;;;;;3.07;43.89;101014.97;5030930;28;20404;-78
2022/03/07 00:34:39;;;;;;;11.73;8.17;;;;;;;3.04;44.21;101013.50;5062513;28;20403;-78
2022/03/07 00:37:05;;;;;;;8.80;8.00;;;;;;;3.02;44.39;101014.69;5033638;28;20415;-78
2022/03/07 00:39:30;;;;;;;8.77;7.88;;;;;;;2.98;44.38;101016.06;5018777;28;20483;-78
2022/03/07 00:41:56;;;;;;;9.27;8.27;;;;;;;2.97;44.91;101017.06;5045819;28;20464;-77
2022/03/07 00:44:21;;;;;;;8.73;7.83;;;;;;;3.00;44.50;101012.19;5026140;28;20494;-78
2022/03/07 00:46:46;;;;;;;10.77;7.53;;;;;;;2.95;44.77;101009.22;5015010;28;20460;-78
2022/03/07 00:49:11;;;;;;;9.63;8.73;;;;;;;2.95;44.71;101009.22;5025637;28;20408;-78
2022/03/07 00:51:37;;;;;;;8.80;7.93;;;;;;;2.96;45.31;101007.38;5029893;28;20417;-78
2022/03/07 00:54:03;;;;;;;11.37;9.30;;;;;;;2.93;44.82;101008.56;5019304;28;21030;-78
2022/03/07 00:56:28;;;;;;;8.82;8.02;;;;;;;2.87;45.67;101011.13;5023854;28;20729;-78
2022/03/07 00:58:53;;;;;;;9.53;8.43;;;;;;;2.89;45.52;101009.13;5028835;28;20399;-78
2022/03/07 01:01:18;;;;;;;10.10;8.73;;;;;;;2.83;45.74;101013.34;5016094;28;20466;-77
2022/03/07 01:03:44;;;;;;;9.63;8.20;;;;;;;2.80;45.72;101015.56;5014564;28;20431;-78
2022/03/07 01:06:09;;;;;;;8.57;7.70;;;;;;;2.78;45.67;101020.25;5062868;28;20886;-78
2022/03/07 01:08:35;;;;;;;8.43;7.50;;;;;;;2.77;45.97;101019.41;5036405;28;20799;-79
2022/03/07 01:11:00;;;;;;;8.95;7.97;;;;;;;2.80;45.61;101021.72;5025668;28;20817;-78
2022/03/07 01:13:25;;;;;;;8.70;7.70;;;;;;;2.74;46.06;101018.94;5034171;28;20478;-78
2022/03/07 01:15:51;;;;;;;9.10;7.90;;;;;;;2.67;45.63;101021.50;5031097;28;20393;-78
2022/03/07 01:18:16;;;;;;;8.60;7.77;;;;;;;2.68;45.88;101020.50;5024024;28;20461;-78
2022/03/07 01:20:42;;;;;;;8.60;7.88;;;;;;;2.66;45.80;101017.19;5027610;28;20909;-78
2022/03/07 01:23:08;;;;;;;8.30;7.50;;;;;;;2.63;46.04;101017.56;5014758;28;20393;-78
2022/03/07 01:25:33;;;;;;;8.55;7.75;;;;;;;2.63;46.23;101016.72;5029445;28;20450;-78
2022/03/07 01:27:59;;;;;;;8.10;7.32;;;;;;;2.58;46.43;101018.09;5018595;28;20396;-78
2022/03/07 01:30:24;;;;;;;9.68;8.23;;;;;;;2.50;46.32;101015.47;5029054;28;20410;-78
2022/03/07 01:32:52;;;;;;;8.60;7.50;;;;;;;2.45;46.49;101015.19;5024855;28;20392;-78
2022/03/07 01:35:18;;;;;;;8.38;7.38;;;;;;;2.46;46.89;101011.50;5022148;28;20414;-78
2022/03/07 01:37:44;;;;;;;9.00;7.88;;;;;;;2.40;47.29;101014.91;5014574;28;20408;-78
2022/03/07 01:40:09;;;;;;;8.67;7.73;;;;;;;2.43;47.38;101014.53;5017483;28;20387;-78
2022/03/07 01:42:35;;;;;;;8.07;7.10;;;;;;;2.43;47.00;101008.34;5015642;28;20740;-78
2022/03/07 01:45:12;;;;;;;8.75;7.80;;;;;;;2.45;47.32;101011.66;5019397;28;20950;-78
2022/03/07 01:47:38;;;;;;;8.68;7.78;;;;;;;2.38;47.49;101008.03;5028950;28;20759;-78
2022/03/07 01:50:09;;;;;;;9.73;7.37;;;;;;;2.45;47.38;101017.00;5027844;28;20497;-78
2022/03/07 01:52:37;;;;;;;8.27;7.47;;;;;;;2.34;48.18;101004.88;5030238;28;20487;-79
2022/03/07 01:55:03;;;;;;;8.10;7.30;;;;;;;2.35;48.25;101001.22;5020951;28;20388;-78
2022/03/07 01:57:30;;;;;;;8.27;7.40;;;;;;;2.32;47.78;101000.72;5025113;28;20524;-77
2022/03/07 01:59:55;;;;;;;8.35;7.55;;;;;;;2.31;48.20;100991.03;5017684;28;20396;-77
2022/03/07 02:02:21;;;;;;;8.73;7.88;;;;;;;2.26;48.62;100994.25;5022861;28;21042;-78
2022/03/07 02:04:46;;;;;;;8.93;8.03;;;;;;;2.29;48.75;100993.06;5020731;28;20746;-77
2022/03/07 02:07:11;;;;;;;8.03;7.33;;;;;;;2.20;48.45;100996.81;5023198;28;20411;-78
2022/03/07 02:09:37;;;;;;;9.30;7.70;;;;;;;2.16;49.36;100990.16;5027256;28;20444;-78
2022/03/07 02:12:02;;;;;;;8.85;7.95;;;;;;;2.07;48.74;100990.19;5048959;28;20389;-77
2022/03/07 02:14:28;;;;;;;8.88;7.32;;;;;;;2.06;48.84;100988.53;5030623;28;20403;-78
2022/03/07 02:16:53;;;;;;;8.70;7.33;;;;;;;2.00;48.89;100986.59;5023876;28;20895;-77
2022/03/07 02:19:19;;;;;;;8.60;7.70;;;;;;;1.92;49.79;100983.94;5020607;28;20772;-78
2022/03/07 02:21:46;;;;;;;8.48;7.68;;;;;;;1.89;49.57;100983.47;5032570;28;20395;-78
2022/03/07 02:24:12;;;;;;;8.18;7.38;;;;;;;1.83;50.04;100981.50;5015964;28;20894;-77
2022/03/07 02:26:38;;;;;;;8.82;7.93;;;;;;;1.78;50.02;100981.22;5015865;28;20408;-77
2022/03/07 02:29:03;;;;;;;8.35;7.38;;;;;;;1.75;49.66;100985.03;5028507;28;20464;-78
2022/03/07 02:31:32;;;;;;;8.33;7.53;;;;;;;1.76;49.53;100981.38;5030641;28;20391;-77
2022/03/07 02:33:57;;;;;;;8.88;7.55;;;;;;;1.64;49.83;100982.78;5031430;28;20498;-78
2022/03/07 02:36:23;;;;;;;7.82;7.03;;;;;;;1.64;49.77;100980.09;5025170;28;20502;-78
2022/03/07 02:38:48;;;;;;;8.37;6.70;;;;;;;1.56;49.95;100980.97;5012832;28;20482;-77
2022/03/07 02:41:13;;;;;;;8.97;6.97;;;;;;;1.56;49.86;100985.47;5026716;28;20805;-78
2022/03/07 02:43:39;;;;;;;7.97;6.77;;;;;;;1.52;50.11;100979.63;5030829;28;20399;-77
2022/03/07 02:46:05;;;;;;;8.63;7.73;;;;;;;1.51;49.71;100980.66;5025968;28;20475;-77
2022/03/07 02:48:30;;;;;;;9.98;7.63;;;;;;;1.47;50.03;100970.50;5022644;28;20391;-77
2022/03/07 02:50:57;;;;;;;8.60;7.70;;;;;;;1.41;50.15;100969.34;5032555;28;20416;-78
2022/03/07 02:53:23;;;;;;;10.15;8.15;;;;;;;1.36;50.00;100976.19;5016061;28;20403;-78
2022/03/07 02:55:48;;;;;;;8.43;7.63;;;;;;;1.37;49.51;100975.19;5012497;28;20460;-78
2022/03/07 02:58:13;;;;;;;8.87;7.77;;;;;;;1.39;49.50;100979.34;5021482;28;20422;-77
2022/03/07 03:00:39;;;;;;;8.37;7.47;;;;;;;1.36;50.11;100978.88;5031957;28;20403;-77
2022/03/07 03:03:04;;;;;;;8.73;7.70;;;;;;;1.30;49.76;100980.41;5016081;28;20401;-78
2022/03/07 03:05:30;;;;;;;8.00;7.18;;;;;;;1.26;50.37;100981.75;5054292;28;20813;-78
2022/03/07 03:07:56;;;;;;;9.20;8.27;;;;;;;1.20;49.66;100982.44;5039343;28;20400;-78
2022/03/07 03:10:21;;;;;;;9.98;8.20;;;;;;;1.17;49.75;100977.44;5025824;28;20906;-78
2022/03/07 03:12:47;;;;;;;9.27;8.27;;;;;;;1.15;50.37;100979.47;5023869;28;20399;-78
2022/03/07 03:15:13;;;;;;;8.20;7.35;;;;;;;1.12;50.37;100985.09;5028366;28;20393;-78
2022/03/07 03:17:43;;;;;;;8.40;7.43;;;;;;;1.07;49.97;100978.63;5012061;28;20413;-78
2022/03/07 03:20:11;;;;;;;8.50;7.72;;;;;;;1.11;49.92;100988.81;5015833;28;20881;-78
2022/03/07 03:22:37;;;;;;;9.55;8.20;;;;;;;1.03;50.27;100988.81;5012073;28;20442;-77
2022/03/07 03:25:05;;;;;;;9.13;8.23;;;;;;;1.00;50.58;100995.31;5020656;28;20442;-78
2022/03/07 03:27:30;;;;;;;8.30;7.50;;;;;;;1.01;50.34;100989.00;5030657;28;20406;-78
2022/03/07 03:29:55;;;;;;;9.37;8.47;;;;;;;0.98;50.08;100994.69;5020568;28;20780;-78
2022/03/07 03:32:21;;;;;;;9.87;8.63;;;;;;;0.93;50.54;100999.69;5027158;28;20401;-77
2022/03/07 03:34:46;;;;;;;9.07;7.90;;;;;;;0.90;50.15;101005.34;5029644;28;20448;-78
2022/03/07 03:37:11;;;;;;;10.07;8.57;;;;;;;0.87;50.73;100999.53;5026091;28;20396;-78
2022/03/07 03:39:37;;;;;;;9.00;8.10;;;;;;;0.85;50.89;101004.19;5036094;28;20424;-77
2022/03/07 03:42:02;;;;;;;9.67;8.07;;;;;;;0.81;51.00;101006.38;5025660;28;20921;-77
2022/03/07 03:44:28;;;;;;;9.20;8.27;;;;;;;0.84;50.08;101005.19;5024036;28;20393;-78
2022/03/07 03:46:53;;;;;;;11.13;9.30;;;;;;;0.79;50.88;100997.69;5058433;28;20404;-77
2022/03/07 03:49:18;;;;;;;9.80;8.90;;;;;;;0.77;50.97;101007.69;5022337;28;20418;-77
2022/03/07 03:51:44;;;;;;;10.37;8.70;;;;;;;0.74;51.75;101005.38;5024732;28;20495;-78
2022/03/07 03:54:09;;;;;;;8.70;7.90;;;;;;;0.75;51.50;101004.38;5027875;28;20395;-78
2022/03/07 03:56:34;;;;;;;10.23;9.23;;;;;;;0.68;51.64;101008.72;5019866;28;20947;-77
2022/03/07 03:59:00;;;;;;;9.83;8.80;;;;;;;0.64;52.09;101009.22;5021671;28;20413;-78
2022/03/07 04:01:25;;;;;;;10.30;8.57;;;;;;;0.64;52.26;101009.22;5025448;28;20394;-78
2022/03/07 04:03:50;;;;;;;9.73;8.70;;;;;;;0.62;51.53;101009.38;5023235;28;20419;-78
2022/03/07 04:06:16;;;;;;;10.03;8.67;;;;;;;0.61;52.07;101001.53;5015872;28;20416;-78
2022/03/07 04:08:41;;;;;;;11.47;8.97;;;;;;;0.65;52.26;101009.06;5020267;28;20413;-78
2022/03/07 04:11:07;;;;;;;10.67;8.40;;;;;;;0.61;52.12;101013.03;5030060;28;20410;-78
2022/03/07 04:13:32;;;;;;;10.07;9.13;;;;;;;0.58;52.39;101009.88;5035496;28;20396;-78
2022/03/07 04:15:57;;;;;;;11.70;9.17;;;;;;;0.48;52.19;101004.72;5019189;28;20393;-77
2022/03/07 04:18:23;;;;;;;9.55;8.65;;;;;;;0.48;52.28;101010.88;5042472;28;21034;-77
2022/03/07 04:20:48;;;;;;;9.73;8.80;;;;;;;0.43;53.27;101018.53;5034957;28;20403;-78
2022/03/07 04:23:15;;;;;;;10.00;9.00;;;;;;;0.37;53.53;101016.53;5022656;28;20393;-78
2022/03/07 04:25:40;;;;;;;10.52;8.85;;;;;;;0.38;54.63;101025.38;5030713;28;20403;-77
2022/03/07 04:28:06;;;;;;;11.23;8.80;;;;;;;0.34;55.00;101022.19;5030440;28;20906;-78
2022/03/07 04:30:32;;;;;;;9.90;8.67;;;;;;;0.29;55.40;101029.03;5047188;28;20443;-77
2022/03/07 04:32:58;;;;;;;8.88;8.07;;;;;;;0.29;55.47;101029.03;5025979;28;20399;-78
2022/03/07 04:35:23;;;;;;;9.73;8.57;;;;;;;0.32;55.17;101028.69;5030200;28;20460;-78
2022/03/07 04:37:48;;;;;;;9.50;8.00;;;;;;;0.31;55.50;101027.88;5032821;28;20434;-78
2022/03/07 04:40:16;;;;;;;10.10;9.07;;;;;;;0.26;56.23;101038.19;5034491;28;20406;-78
2022/03/07 04:42:43;;;;;;;9.80;8.38;;;;;;;0.26;55.79;101032.88;5034898;28;20399;-78
2022/03/07 04:45:10;;;;;;;9.10;7.93;;;;;;;0.25;56.16;101038.34;5057292;28;20387;-77
2022/03/07 04:47:36;;;;;;;10.20;8.13;;;;;;;0.24;56.48;101045.50;5029749;28;20476;-78
2022/03/07 04:50:01;;;;;;;9.60;8.10;;;;;;;0.22;56.96;101044.84;5034534;28;20417;-78
2022/03/07 04:52:26;;;;;;;8.43;7.63;;;;;;;0.16;56.92;101042.84;5023984;28;20392;-78
2022/03/07 04:54:52;;;;;;;8.83;7.93;;;;;;;0.09;57.16;101041.81;5060724;28;20398;-78
2022/03/07 04:57:17;;;;;;;9.20;7.72;;;;;;;0.16;56.95;101042.00;5033766;28;20486;-78
2022/03/07 04:59:45;;;;;;;8.93;7.50;;;;;;;0.12;57.40;101051.31;5026695;28;20755;-78
2022/03/07 05:02:11;;;;;;;8.32;7.43;;;;;;;0.10;57.60;101053.31;5029382;28;20762;-78
2022/03/07 05:04:36;;;;;;;10.50;7.72;;;;;;;0.09;57.65;101056.97;5020354;28;20408;-78
2022/03/07 05:07:01;;;;;;;11.25;7.90;;;;;;;0.09;57.80;101056.97;5036156;28;20387;-77
2022/03/07 05:09:27;;;;;;;8.53;7.07;;;;;;;0.04;57.87;101056.59;5028855;28;20425;-78
2022/03/07 05:11:52;;;;;;;8.33;7.27;;;;;;;0.04;57.53;101062.78;5030525;28;20906;-77
2022/03/07 05:14:18;;;;;;;7.67;6.97;;;;;;;0.02;57.83;101064.78;5030884;28;20392;-77
2022/03/07 05:16:43;;;;;;;7.20;6.50;;;;;;;0.00;57.91;101056.94;5030739;28;20801;-78
2022/03/07 05:19:08;;;;;;;8.38;7.13;;;;;;;-0.04;58.16;101057.44;5017576;28;20428;-78
2022/03/07 05:21:33;;;;;;;7.90;7.20;;;;;;;-0.04;58.53;101066.28;5020092;28;20453;-78
2022/03/07 05:24:01;;;;;;;10.60;8.35;;;;;;;0.00;58.24;101066.78;5030429;28;21268;-78
2022/03/07 05:26:26;;;;;;;15.37;11.13;;;;;;;0.02;58.32;101067.44;5025307;28;20401;-78
2022/03/07 05:28:51;;;;;;;11.50;10.13;;;;;;;-0.02;58.07;101079.41;5033510;28;20446;-78
2022/03/07 05:31:17;;;;;;;10.47;8.50;;;;;;;-0.10;58.50;101064.22;5027703;28;20455;-78
2022/03/07 05:33:42;;;;;;;9.82;7.90;;;;;;;-0.09;58.51;101065.91;5013618;28;20411;-78
2022/03/07 05:36:08;;;;;;;10.13;7.27;;;;;;;-0.13;58.13;101077.88;5018462;28;20408;-78
2022/03/07 05:38:34;;;;;;;9.00;7.27;;;;;;;-0.13;58.01;101075.22;5032529;28;20417;-77
2022/03/07 05:40:59;;;;;;;9.38;6.85;;;;;;;-0.15;57.88;101081.69;5029271;28;20398;-78
2022/03/07 05:43:24;;;;;;;8.63;6.53;;;;;;;-0.11;57.65;101081.22;5027500;28;20391;-77
2022/03/07 05:45:50;;;;;;;6.93;6.10;;;;;;;-0.16;58.04;101072.88;5029122;28;20458;-80
2022/03/07 05:48:15;;;;;;;7.47;6.57;;;;;;;-0.17;57.85;101075.72;5031721;28;20465;-78
2022/03/07 05:50:41;;;;;;;6.67;6.07;;;;;;;-0.15;58.02;101071.88;5071111;28;20411;-79
2022/03/07 05:53:06;;;;;;;8.30;6.63;;;;;;;-0.11;57.25;101070.56;5029859;28;20403;-78
2022/03/07 05:55:32;;;;;;;7.43;6.30;;;;;;;-0.10;57.84;101074.06;5030076;28;20413;-78
2022/03/07 05:58:00;;;;;;;9.83;7.53;;;;;;;-0.10;57.38;101074.88;5028542;28;20510;-78
2022/03/07 06:00:26;;;;;;;8.23;6.18;;;;;;;-0.19;58.09;101075.00;5026535;28;20445;-78
2022/03/07 06:02:51;;;;;;;10.38;6.60;;;;;;;-0.20;57.57;101084.03;5028495;28;20410;-78
2022/03/07 06:05:16;;;;;;;7.18;6.43;;;;;;;-0.19;57.99;101083.84;5044207;28;20422;-78
2022/03/07 06:07:42;;;;;;;9.33;6.03;;;;;;;-0.18;57.50;101085.53;5030242;28;20403;-78
2022/03/07 06:10:07;;;;;;;7.37;6.23;;;;;;;-0.12;57.31;101090.22;5031100;28;20407;-78
2022/03/07 06:12:33;;;;;;;8.23;6.40;;;;;;;-0.14;57.32;101091.38;5042048;28;20472;-78
2022/03/07 06:15:03;;;;;;;7.37;5.47;;;;;;;-0.16;57.35;101094.19;5027867;28;20399;-78
2022/03/07 06:17:29;;;;;;;8.85;5.75;;;;;;;-0.19;57.22;101094.50;5029294;28;20847;-78
2022/03/07 06:19:54;;;;;;;7.90;6.57;;;;;;;-0.21;57.50;101096.50;5029510;28;20395;-78
2022/03/07 06:22:19;;;;;;;7.03;6.33;;;;;;;-0.16;57.16;101096.84;5029479;28;20427;-78
2022/03/07 06:24:44;;;;;;;11.87;7.77;;;;;;;-0.13;57.07;101109.84;5021289;28;20444;-78
2022/03/07 06:27:10;;;;;;;6.50;5.90;;;;;;;-0.06;57.13;101099.38;5022742;28;20514;-78
2022/03/07 06:29:35;;;;;;;7.20;5.72;;;;;;;-0.09;56.98;101097.88;5025966;28;21003;-78
2022/03/07 06:32:00;;;;;;;6.87;6.17;;;;;;;-0.06;56.75;101100.22;5026977;28;20407;-78
2022/03/07 06:34:26;;;;;;;6.67;5.97;;;;;;;0.00;56.41;101102.22;5028907;28;20457;-80
2022/03/07 06:36:51;;;;;;;6.57;5.93;;;;;;;-0.02;57.02;101092.75;5029053;28;20438;-78
2022/03/07 06:39:17;;;;;;;6.63;5.97;;;;;;;0.03;56.64;101098.44;5042145;28;20419;-77
2022/03/07 06:41:42;;;;;;;6.68;5.85;;;;;;;0.15;56.36;101093.63;5023358;28;20442;-78
2022/03/07 06:44:07;;;;;;;7.90;6.70;;;;;;;0.11;56.55;101103.78;5041622;28;20924;-79
2022/03/07 06:46:33;;;;;;;8.30;6.70;;;;;;;0.08;56.64;101105.94;5028278;28;20403;-77
2022/03/07 06:48:58;;;;;;;13.00;9.90;;;;;;;0.08;56.63;101108.59;5028807;28;20977;-78
2022/03/07 06:51:24;;;;;;;11.85;9.80;;;;;;;0.15;56.71;101105.13;5027698;28;20939;-80
2022/03/07 06:53:49;;;;;;;11.30;10.13;;;;;;;0.14;56.16;101097.28;5027114;28;20484;-78
2022/03/07 06:56:17;;;;;;;10.03;9.00;;;;;;;0.19;56.41;101106.47;5028381;28;20908;-77
2022/03/07 06:58:44;;;;;;;7.47;6.75;;;;;;;0.20;56.30;101102.78;5028902;28;20414;-78
2022/03/07 07:01:10;;;;;;;6.72;5.90;;;;;;;0.20;55.77;101102.00;5028272;28;20403;-78
2022/03/07 07:03:35;;;;;;;9.83;7.20;;;;;;;0.24;55.86;101105.97;5024863;28;20426;-78
2022/03/07 07:06:00;;;;;;;8.07;6.33;;;;;;;0.24;55.55;101105.97;5024308;28;20946;-78
2022/03/07 07:08:25;;;;;;;7.50;6.27;;;;;;;0.32;55.52;101111.34;5025003;28;20420;-79
2022/03/07 07:10:51;;;;;;;8.77;6.80;;;;;;;0.34;55.24;101109.34;5026885;28;20419;-78
2022/03/07 07:13:16;;;;;;;8.17;6.50;;;;;;;0.51;54.43;101108.38;5027938;28;20407;-77
2022/03/07 07:15:42;;;;;;;7.73;6.93;;;;;;;0.52;55.18;101110.91;5030978;28;20449;-77
2022/03/07 07:18:07;;;;;;;7.97;6.55;;;;;;;0.55;54.55;101104.41;5029952;28;20708;-80
2022/03/07 07:20:33;;;;;;;7.13;6.43;;;;;;;0.67;54.69;101110.22;5030138;28;20414;-77
2022/03/07 07:22:58;;;;;;;7.30;6.57;;;;;;;0.74;54.36;101114.75;5020420;28;20395;-76
2022/03/07 07:25:23;;;;;;;7.50;6.23;;;;;;;0.76;53.95;101119.94;5025202;28;20740;-78
2022/03/07 07:27:49;;;;;;;8.10;6.53;;;;;;;0.78;53.75;101124.09;5020391;28;22647;-78
2022/03/07 07:30:14;;;;;;;11.57;7.73;;;;;;;0.95;53.90;101117.78;5050634;28;20427;-79
2022/03/07 07:32:40;;;;;;;6.97;6.37;;;;;;;1.12;53.15;101131.13;5035910;28;20476;-78
2022/03/07 07:35:07;;;;;;;8.40;6.67;;;;;;;1.21;51.85;101130.09;5026788;28;20456;-78
2022/03/07 07:37:32;;;;;;;9.50;6.82;;;;;;;1.13;51.48;101132.75;5029425;28;20406;-79
2022/03/07 07:39:57;;;;;;;7.10;6.40;;;;;;;1.09;52.22;101126.91;5026745;28;20807;-78
2022/03/07 07:42:23;;;;;;;13.73;6.87;;;;;;;1.17;51.84;101137.63;5017903;28;20407;-79
2022/03/07 07:44:48;;;;;;;8.77;6.30;;;;;;;1.46;50.79;101134.41;5031752;28;20935;-79
2022/03/07 07:47:13;;;;;;;7.05;6.40;;;;;;;1.69;50.88;101137.19;5027825;28;20407;-78
2022/03/07 07:49:39;;;;;;;8.00;6.63;;;;;;;1.61;50.62;101138.06;5027439;28;20407;-79
2022/03/07 07:52:04;;;;;;;7.90;7.10;;;;;;;1.75;50.38;101142.69;5029528;28;20743;-79
2022/03/07 07:54:31;;;;;;;7.63;6.35;;;;;;;1.60;49.76;101138.22;5020956;28;20453;-79
2022/03/07 07:56:56;;;;;;;10.32;7.60;;;;;;;1.40;50.01;101145.78;5023846;28;20443;-79
2022/03/07 07:59:22;;;;;;;9.75;7.18;;;;;;;1.43;50.06;101142.75;5022697;28;20871;-79
2022/03/07 08:01:47;;;;;;;10.50;6.93;;;;;;;1.55;49.55;101150.25;5029647;28;20415;-79
2022/03/07 08:04:12;;;;;;;8.63;6.70;;;;;;;1.55;49.52;101149.41;5029997;28;20453;-79
2022/03/07 08:06:38;;;;;;;7.17;6.10;;;;;;;1.58;49.34;101155.25;5058483;28;20399;-79
2022/03/07 08:09:04;;;;;;;11.18;7.05;;;;;;;1.65;49.10;101157.25;5031381;28;20422;-80
2022/03/07 08:11:29;;;;;;;10.20;6.60;;;;;;;1.63;49.18;101151.25;5023500;28;20918;-79
2022/03/07 08:13:54;;;;;;;7.90;7.13;;;;;;;1.75;49.10;101160.56;5030059;28;20462;-79
2022/03/07 08:16:20;;;;;;;7.47;6.77;;;;;;;1.95;48.75;101159.16;5024030;28;20862;-79
2022/03/07 08:18:46;;;;;;;25.45;9.25;;;;;;;1.91;48.51;101147.97;5021572;28;20404;-79
2022/03/07 08:21:12;;;;;;;9.65;7.47;;;;;;;1.92;48.02;101154.16;5019494;28;20397;-79
2022/03/07 08:23:37;;;;;;;7.87;6.60;;;;;;;1.84;48.21;101152.38;5030688;28;20746;-79
2022/03/07 08:26:02;;;;;;;13.65;8.13;;;;;;;1.87;48.01;101146.69;5022636;28;21035;-80
2022/03/07 08:28:28;;;;;;;10.07;8.17;;;;;;;2.02;47.96;101152.97;5027961;28;20418;-80
2022/03/07 08:30:53;;;;;;;11.23;7.80;;;;;;;2.01;48.24;101151.28;5030905;28;20423;-79
2022/03/07 08:33:18;;;;;;;9.32;7.25;;;;;;;2.14;47.63;101155.28;5023767;28;20402;-80
2022/03/07 08:35:44;;;;;;;11.27;8.93;;;;;;;2.19;48.13;101156.41;5024228;28;20399;-80
2022/03/07 08:38:09;;;;;;;9.37;7.97;;;;;;;2.28;47.06;101158.03;5024301;28;20396;-80
2022/03/07 08:40:34;;;;;;;16.77;8.90;;;;;;;2.40;47.39;101158.50;5022493;28;20415;-79
2022/03/07 08:43:00;;;;;;;11.13;8.25;;;;;;;2.71;46.05;101158.47;5028660;28;20439;-79
2022/03/07 08:45:25;;;;;;;14.43;8.70;;;;;;;2.57;46.73;101152.88;5022062;28;20413;-79
2022/03/07 08:47:51;;;;;;;18.33;9.17;;;;;;;2.55;46.11;101165.59;5025246;28;20882;-80
2022/03/07 08:50:18;;;;;;;16.30;8.63;;;;;;;2.50;47.00;101159.94;5026643;28;20408;-79
2022/03/07 08:52:44;;;;;;;13.73;9.40;;;;;;;2.67;46.99;101154.50;5032645;28;20387;-79
2022/03/07 08:55:10;;;;;;;10.60;8.50;;;;;;;2.93;46.59;101161.16;5017031;28;20400;-79
2022/03/07 08:57:36;;;;;;;17.27;8.83;;;;;;;3.34;45.39;101160.84;5019742;28;20395;-79
2022/03/07 09:00:05;;;;;;;16.13;8.38;;;;;;;3.71;44.37;101163.50;5058184;28;20451;-80
2022/03/07 09:02:30;;;;;;;11.15;8.80;;;;;;;4.03;44.08;101160.47;5025012;28;20407;-80
2022/03/07 09:04:56;;;;;;;12.00;8.53;;;;;;;3.79;43.80;101159.94;5015139;28;20488;-79
2022/03/07 09:07:21;;;;;;;18.90;9.60;;;;;;;3.72;43.49;101161.69;5030227;28;20480;-80
2022/03/07 09:09:46;;;;;;;17.80;10.07;;;;;;;3.97;43.16;101161.22;5030541;28;20415;-79
2022/03/07 09:12:11;;;;;;;10.13;8.63;;;;;;;4.25;43.03;101171.31;5034298;28;20453;-80
2022/03/07 09:14:37;;;;;;;14.97;9.17;;;;;;;4.12;43.23;101169.25;5018845;28;20755;-79
2022/03/07 09:17:03;;;;;;;10.82;8.35;;;;;;;4.17;42.71;101164.19;5031925;28;20415;-80
2022/03/07 09:19:28;;;;;;;10.05;8.93;;;;;;;4.82;42.08;101153.38;5027286;28;20396;-80
2022/03/07 09:21:53;;;;;;;21.37;9.67;;;;;;;5.18;40.94;101162.22;5056816;28;20388;-80
2022/03/07 09:24:19;;;;;;;10.97;9.53;;;;;;;5.19;40.07;101165.75;5051686;28;20452;-80
2022/03/07 09:26:45;;;;;;;9.65;8.57;;;;;;;5.79;38.91;101156.31;5032073;28;20810;-80
2022/03/07 09:29:10;;;;;;;10.70;9.20;;;;;;;5.67;38.77;101164.06;5019928;28;20412;-79
2022/03/07 09:31:36;;;;;;;19.70;9.47;;;;;;;5.80;38.63;101161.47;5032680;28;20461;-80
2022/03/07 09:34:02;;;;;;;11.43;9.55;;;;;;;5.95;38.53;101158.72;5029403;28;20397;-82
2022/03/07 09:36:27;;;;;;;9.90;8.63;;;;;;;6.20;38.53;101160.72;5045401;28;20430;-80
2022/03/07 09:38:52;;;;;;;10.30;9.30;;;;;;;6.75;37.34;101161.59;5017544;28;20535;-81
2022/03/07 09:41:18;;;;;;;10.83;9.17;;;;;;;6.46;36.64;101165.38;5049166;28;20479;-81
2022/03/07 09:43:46;;;;;;;11.52;9.00;;;;;;;6.66;37.57;101166.31;5027453;28;20505;-80
2022/03/07 09:46:12;;;;;;;13.02;11.25;;;;;;;6.92;35.90;101159.31;5031775;28;20403;-81
2022/03/07 09:48:38;;;;;;;14.95;11.57;;;;;;;8.10;34.65;101164.72;5029301;28;20407;-80
2022/03/07 09:51:04;;;;;;;10.00;9.00;;;;;;;8.84;32.88;101156.97;5025560;28;20737;-81
2022/03/07 09:53:29;;;;;;;10.20;8.90;;;;;;;10.65;29.79;101155.72;5016787;28;20421;-81
2022/03/07 09:55:55;;;;;;;12.93;10.27;;;;;;;11.19;28.81;101157.47;5047382;28;20792;-81
2022/03/07 09:58:21;;;;;;;12.63;9.60;;;;;;;11.05;28.54;101151.41;5016618;28;20745;-81
2022/03/07 10:00:46;;;;;;;9.73;8.83;;;;;;;10.67;29.39;101148.22;5033441;28;20391;-81
2022/03/07 10:03:14;;;;;;;10.52;9.15;;;;;;;9.55;30.41;101146.66;5022662;28;20396;-80
2022/03/07 10:05:45;;;;;;;9.52;8.60;;;;;;;9.33;31.56;101148.09;5026730;28;20452;-81
2022/03/07 10:08:24;;;;;;;16.98;9.77;;;;;;;9.02;31.43;101165.19;5032441;28;20506;-81
2022/03/07 10:10:52;;;;;;;10.02;9.00;;;;;;;9.55;30.75;101157.50;5024370;28;20915;-81
2022/03/07 10:13:17;;;;;;;10.45;9.02;;;;;;;10.35;30.09;101153.78;5057675;28;20407;-81
2022/03/07 10:15:42;;;;;;;10.60;9.47;;;;;;;11.55;28.45;101157.31;5032812;28;20387;-81
2022/03/07 10:18:16;;;;;;;12.30;8.80;;;;;;;13.65;26.71;101154.81;5017491;28;21005;-81
2022/03/07 10:20:53;;;;;;;11.82;9.18;;;;;;;15.94;23.60;101152.56;5026425;28;20446;-82
2022/03/07 10:23:19;;;;;;;9.50;8.63;;;;;;;17.88;20.98;101156.47;5013088;28;20440;-81
2022/03/07 10:25:45;;;;;;;10.30;9.30;;;;;;;17.76;20.17;101162.22;5025217;28;20878;-83
2022/03/07 10:28:11;;;;;;;9.03;8.40;;;;;;;18.43;20.04;101153.56;5026549;28;20507;-81
2022/03/07 10:30:38;;;;;;;10.37;8.43;;;;;;;19.15;18.57;101154.88;5028126;28;20975;-87
2022/03/07 10:33:09;;;;;;;10.30;9.02;;;;;;;19.72;18.40;101158.88;5031726;28;20431;-83
2022/03/07 10:35:38;;;;;;;10.80;8.87;;;;;;;19.07;18.46;101164.53;5020749;28;20452;-81
2022/03/07 10:38:10;;;;;;;9.53;8.70;;;;;;;18.00;18.93;101157.81;5012906;28;20397;-82
2022/03/07 10:40:39;;;;;;;9.73;8.93;;;;;;;15.12;21.39;101160.31;5023871;28;20395;-81
2022/03/07 10:43:05;;;;;;;10.40;8.82;;;;;;;11.83;25.04;101162.91;5022128;28;20954;-81
2022/03/07 10:45:32;;;;;;;10.20;9.25;;;;;;;9.94;28.65;101169.84;5028112;28;20482;-81
2022/03/07 10:48:00;;;;;;;11.65;10.55;;;;;;;13.20;25.80;101154.91;5027657;28;20752;-82
2022/03/07 10:50:28;;;;;;;9.07;8.38;;;;;;;16.45;21.33;101159.16;5053282;28;20472;-81
2022/03/07 10:53:03;;;;;;;11.35;8.98;;;;;;;15.12;21.90;101142.03;5019691;28;20450;-82
2022/03/07 10:55:30;;;;;;;9.18;8.48;;;;;;;15.88;21.71;101150.88;5027203;28;20405;-81
2022/03/07 10:58:15;;;;;;;9.13;8.32;;;;;;;17.03;20.52;101142.41;5032660;28;20396;-82
2022/03/07 11:00:51;;;;;;;9.37;8.57;;;;;;;17.68;19.53;101143.59;5032352;28;20391;-83
2022/03/07 11:03:29;;;;;;;9.82;8.93;;;;;;;17.80;18.89;101146.03;5013126;28;20412;-81
2022/03/07 11:05:56;;;;;;;10.60;9.60;;;;;;;16.93;20.21;101147.03;5025337;28;20399;-85
2022/03/07 11:08:22;;;;;;;9.90;9.00;;;;;;;17.67;19.46;101143.84;5019341;28;20396;-81
2022/03/07 11:10:54;;;;;;;12.43;11.02;;;;;;;16.54;20.14;101147.44;5022407;28;20414;-81
2022/03/07 11:13:31;;;;;;;14.02;12.00;;;;;;;13.95;23.08;101152.56;5012442;28;20470;-81
2022/03/07 11:16:00;;;;;;;20.23;14.25;;;;;;;14.82;22.25;101142.53;5022814;28;20405;-81
2022/03/07 11:18:26;;;;;;;14.98;11.95;;;;;;;16.42;21.23;101137.81;5026961;28;20398;-81
2022/03/07 11:20:54;;;;;;;10.20;9.20;;;;;;;17.85;19.64;101130.38;5047639;28;20407;-81
2022/03/07 11:23:21;;;;;;;16.25;9.45;;;;;;;17.44;19.33;101137.81;5025668;28;20474;-81